createdAt,value
2023-09-29T00:00:32.401Z,20.42
2023-09-29T00:03:00.787Z,25.13
2023-09-29T00:05:29.058Z,19.17
2023-09-29T00:07:57.292Z,16.70
2023-09-29T00:10:26.830Z,20.30
2023-09-29T00:12:55.036Z,22.70
2023-09-29T00:15:24.140Z,18.60
2023-09-29T00:17:52.421Z,22.92
2023-09-29T00:20:25.252Z,17.05
2023-09-29T00:22:54.364Z,20.25
2023-09-29T00:25:22.555Z,24.80
2023-09-29T00:27:52.347Z,22.40
2023-09-29T00:30:20.450Z,22.30
2023-09-29T00:32:49.142Z,20.10
2023-09-29T00:35:25.667Z,21.90
2023-09-29T00:37:54.610Z,18.85
2023-09-29T00:40:22.993Z,17.60
2023-09-29T00:42:53.739Z,18.17
2023-09-29T00:45:24.737Z,22.75
2023-09-29T00:50:21.878Z,20.38
2023-09-29T00:52:53.582Z,19.85
2023-09-29T00:55:24.790Z,20.73
2023-09-29T00:57:54.177Z,19.90
2023-09-29T01:00:31.595Z,20.70
2023-09-29T01:03:00.447Z,22.08
2023-09-29T01:05:30.823Z,22.23
2023-09-29T01:07:59.208Z,16.98
2023-09-29T01:10:27.852Z,24.35
2023-09-29T01:12:57.293Z,26.27
2023-09-29T01:15:25.606Z,24.88
2023-09-29T01:17:54.104Z,21.38
2023-09-29T01:20:30.107Z,20.58
2023-09-29T01:22:58.626Z,24.60
2023-09-29T01:25:28.073Z,20.58
2023-09-29T01:27:56.252Z,27.90
2023-09-29T01:30:25.673Z,24.60
2023-09-29T01:32:57.522Z,20.75
2023-09-29T01:35:26.113Z,24.88
2023-09-29T01:37:55.377Z,20.48
2023-09-29T01:40:24.941Z,23.48
2023-09-29T01:42:54.279Z,22.50
2023-09-29T01:45:22.460Z,25.48
2023-09-29T01:47:51.450Z,24.70
2023-09-29T01:50:20.424Z,23.88
2023-09-29T01:52:50.015Z,22.58
2023-09-29T01:55:20.863Z,21.35
2023-09-29T01:57:49.618Z,21.92
2023-09-29T02:00:25.540Z,19.73
2023-09-29T02:02:55.228Z,22.60
2023-09-29T02:05:24.689Z,23.85
2023-09-29T02:07:53.594Z,22.25
2023-09-29T02:10:23.635Z,22.80
2023-09-29T02:12:56.075Z,20.92
2023-09-29T02:15:25.958Z,23.20
2023-09-29T02:17:54.540Z,22.60
2023-09-29T02:20:30.260Z,19.35
2023-09-29T02:22:59.188Z,21.63
2023-09-29T02:25:27.594Z,20.48
2023-09-29T02:27:57.128Z,23.25
2023-09-29T02:30:27.052Z,23.58
2023-09-29T02:32:55.365Z,18.65
2023-09-29T02:35:24.300Z,15.88
2023-09-29T02:37:53.492Z,18.88
2023-09-29T02:40:23.509Z,19.70
2023-09-29T02:42:52.367Z,16.60
2023-09-29T02:45:20.681Z,17.73
2023-09-29T02:47:50.195Z,14.18
2023-09-29T02:50:19.640Z,18.88
2023-09-29T02:52:49.946Z,16.23
2023-09-29T02:55:18.159Z,15.68
2023-09-29T02:57:47.059Z,13.45
2023-09-29T03:00:20.685Z,16.23
2023-09-29T03:02:52.600Z,15.10
2023-09-29T03:05:22.259Z,12.52
2023-09-29T03:07:52.421Z,14.80
2023-09-29T03:10:26.429Z,15.65
2023-09-29T03:12:57.759Z,15.05
2023-09-29T03:15:26.725Z,13.63
2023-09-29T03:18:00.053Z,18.13
2023-09-29T03:20:29.145Z,13.10
2023-09-29T03:22:58.665Z,15.48
2023-09-29T03:25:26.672Z,12.07
2023-09-29T03:27:55.672Z,14.70
2023-09-29T03:30:24.009Z,10.98
2023-09-29T03:32:53.366Z,14.18
2023-09-29T03:35:22.924Z,12.20
2023-09-29T03:37:51.099Z,14.32
2023-09-29T03:40:19.695Z,12.20
2023-09-29T03:42:47.905Z,12.02
2023-09-29T03:45:16.029Z,12.07
2023-09-29T03:47:44.305Z,11.98
2023-09-29T03:50:14.070Z,10.40
2023-09-29T03:52:45.657Z,14.00
2023-09-29T03:55:14.135Z,10.65
2023-09-29T03:57:42.466Z,9.90
2023-09-29T04:00:13.266Z,13.23
2023-09-29T04:02:41.809Z,7.88
2023-09-29T04:05:10.243Z,10.43
2023-09-29T04:07:38.497Z,10.20
2023-09-29T04:10:09.828Z,8.95
2023-09-29T04:12:38.658Z,9.75
2023-09-29T04:15:07.207Z,10.52
2023-09-29T04:17:36.234Z,10.23
2023-09-29T04:20:04.603Z,8.10
2023-09-29T04:22:33.252Z,10.00
2023-09-29T04:25:01.295Z,8.32
2023-09-29T04:27:30.922Z,9.60
2023-09-29T04:30:00.355Z,7.45
2023-09-29T04:32:28.443Z,9.82
2023-09-29T04:34:56.498Z,6.72
2023-09-29T04:37:24.524Z,8.18
2023-09-29T04:39:52.458Z,6.85
2023-09-29T04:42:20.440Z,8.52
2023-09-29T04:44:49.840Z,7.93
2023-09-29T04:47:19.052Z,7.70
2023-09-29T04:49:47.173Z,7.25
2023-09-29T04:52:15.202Z,8.13
2023-09-29T04:54:44.814Z,8.57
2023-09-29T04:57:12.790Z,6.70
2023-09-29T04:59:40.903Z,8.25
2023-09-29T05:02:10.256Z,9.93
2023-09-29T05:04:38.345Z,6.40
2023-09-29T05:07:06.382Z,6.72
2023-09-29T05:09:34.416Z,7.80
2023-09-29T05:12:02.539Z,7.43
2023-09-29T05:14:30.991Z,7.28
2023-09-29T05:16:58.960Z,8.07
2023-09-29T05:19:28.326Z,5.65
2023-09-29T05:21:56.262Z,7.65
2023-09-29T05:24:24.328Z,7.85
2023-09-29T05:26:52.477Z,5.20
2023-09-29T05:29:20.569Z,5.97
2023-09-29T05:31:48.556Z,8.43
2023-09-29T05:34:16.630Z,6.28
2023-09-29T05:36:46.667Z,7.18
2023-09-29T05:39:15.698Z,6.65
2023-09-29T05:41:43.717Z,5.57
2023-09-29T05:44:11.713Z,5.05
2023-09-29T05:46:38.707Z,7.65
2023-09-29T05:49:06.762Z,8.60
2023-09-29T05:51:34.721Z,6.13
2023-09-29T05:54:04.852Z,4.75
2023-09-29T05:56:33.572Z,6.20
2023-09-29T05:59:02.017Z,5.88
2023-09-29T06:01:30.112Z,6.18
2023-09-29T06:03:58.246Z,4.70
2023-09-29T06:06:26.460Z,7.43
2023-09-29T06:08:55.838Z,7.25
2023-09-29T06:11:25.512Z,5.53
2023-09-29T06:13:53.535Z,5.13
2023-09-29T06:16:21.976Z,5.45
2023-09-29T06:18:50.190Z,7.43
2023-09-29T06:21:18.387Z,5.53
2023-09-29T06:23:46.520Z,4.68
2023-09-29T06:26:14.610Z,6.03
2023-09-29T06:28:44.030Z,6.63
2023-09-29T06:31:12.037Z,11.10
2023-09-29T06:33:40.386Z,7.45
2023-09-29T06:36:09.027Z,5.20
2023-09-29T06:38:37.069Z,3.40
2023-09-29T06:41:05.116Z,6.07
2023-09-29T06:43:33.118Z,5.72
2023-09-29T06:46:02.664Z,5.47
2023-09-29T06:48:30.794Z,5.07
2023-09-29T06:51:01.340Z,6.55
2023-09-29T06:56:00.115Z,3.20
2023-09-29T06:58:28.383Z,6.70
2023-09-29T07:01:01.146Z,6.03
2023-09-29T07:03:32.544Z,3.78
2023-09-29T07:06:02.069Z,6.78
2023-09-29T07:08:30.527Z,4.95
2023-09-29T07:10:58.740Z,4.10
2023-09-29T07:13:26.834Z,5.72
2023-09-29T07:15:54.897Z,4.05
2023-09-29T07:18:23.466Z,5.10
2023-09-29T07:20:54.762Z,6.65
2023-09-29T07:23:23.598Z,10.02
2023-09-29T07:25:52.557Z,5.40
2023-09-29T07:28:22.040Z,7.88
2023-09-29T07:30:50.117Z,4.32
2023-09-29T07:33:18.436Z,6.00
2023-09-29T07:35:46.786Z,3.88
2023-09-29T07:38:18.457Z,3.40
2023-09-29T07:40:47.279Z,6.55
2023-09-29T07:43:15.502Z,7.18
2023-09-29T07:45:45.260Z,3.75
2023-09-29T07:48:15.701Z,4.32
2023-09-29T07:50:43.928Z,5.55
2023-09-29T07:53:12.623Z,3.92
2023-09-29T07:55:42.354Z,5.65
2023-09-29T07:58:11.279Z,4.15
2023-09-29T08:00:39.294Z,4.82
2023-09-29T08:03:07.355Z,4.32
2023-09-29T08:05:35.446Z,3.95
2023-09-29T08:08:03.542Z,4.65
2023-09-29T08:10:31.514Z,4.13
2023-09-29T08:13:00.817Z,5.35
2023-09-29T08:15:28.765Z,5.47
2023-09-29T08:17:56.853Z,4.20
2023-09-29T08:20:24.892Z,3.75
2023-09-29T08:22:52.881Z,5.15
2023-09-29T08:25:21.642Z,5.93
2023-09-29T08:27:49.696Z,4.10
2023-09-29T08:30:19.458Z,3.30
2023-09-29T08:32:49.491Z,6.28
2023-09-29T08:35:20.424Z,4.78
2023-09-29T08:37:50.280Z,5.88
2023-09-29T08:40:18.841Z,5.80
2023-09-29T08:42:50.649Z,4.40
2023-09-29T08:45:21.555Z,5.80
2023-09-29T08:47:51.900Z,7.72
2023-09-29T08:50:20.469Z,4.50
2023-09-29T08:52:50.334Z,3.70
2023-09-29T08:55:18.901Z,4.93
2023-09-29T08:57:47.154Z,3.65
2023-09-29T09:00:15.796Z,6.00
2023-09-29T09:02:46.091Z,4.85
2023-09-29T09:05:15.964Z,3.92
2023-09-29T09:07:44.918Z,3.13
2023-09-29T09:10:26.947Z,4.78
2023-09-29T09:13:01.140Z,5.43
2023-09-29T09:15:29.513Z,4.45
2023-09-29T09:17:58.981Z,4.13
2023-09-29T09:20:27.423Z,4.82
2023-09-29T09:22:59.446Z,6.35
2023-09-29T09:25:36.162Z,5.50
2023-09-29T09:28:04.360Z,3.10
2023-09-29T09:30:36.948Z,3.70
2023-09-29T09:33:07.692Z,5.00
2023-09-29T09:35:38.560Z,4.60
2023-09-29T09:38:06.850Z,5.50
2023-09-29T09:40:35.304Z,4.45
2023-09-29T09:43:05.604Z,5.53
2023-09-29T09:45:38.188Z,5.25
2023-09-29T09:48:10.552Z,4.38
2023-09-29T09:50:43.187Z,4.00
2023-09-29T09:53:13.800Z,6.07
2023-09-29T09:55:43.247Z,5.70
2023-09-29T09:58:14.208Z,6.78
2023-09-29T10:00:42.791Z,6.70
2023-09-29T10:03:14.231Z,4.10
2023-09-29T10:05:43.484Z,3.85
2023-09-29T10:08:13.940Z,6.00
2023-09-29T10:10:42.978Z,9.95
2023-09-29T10:13:13.556Z,8.35
2023-09-29T10:15:41.634Z,7.68
2023-09-29T10:18:20.751Z,6.30
2023-09-29T10:20:55.907Z,4.75
2023-09-29T10:23:26.498Z,5.15
2023-09-29T10:25:59.146Z,4.97
2023-09-29T10:28:33.589Z,3.75
2023-09-29T10:31:07.967Z,6.35
2023-09-29T10:33:51.989Z,7.35
2023-09-29T10:36:21.057Z,5.15
2023-09-29T10:38:49.559Z,6.22
2023-09-29T10:41:34.149Z,5.95
2023-09-29T10:44:05.046Z,3.83
2023-09-29T10:46:33.493Z,5.00
2023-09-29T10:49:05.073Z,3.72
2023-09-29T10:51:33.609Z,5.95
2023-09-29T10:54:08.057Z,6.25
2023-09-29T10:56:36.944Z,4.82
2023-09-29T10:59:07.151Z,6.93
2023-09-29T11:01:35.552Z,4.50
2023-09-29T11:04:06.713Z,7.68
2023-09-29T11:06:41.708Z,6.53
2023-09-29T11:09:11.269Z,5.60
2023-09-29T11:11:40.706Z,8.10
2023-09-29T11:14:08.809Z,5.32
2023-09-29T11:16:38.010Z,5.22
2023-09-29T11:19:12.240Z,8.57
2023-09-29T11:21:41.266Z,7.15
2023-09-29T11:24:10.763Z,5.72
2023-09-29T11:26:43.144Z,6.43
2023-09-29T11:29:21.196Z,6.45
2023-09-29T11:31:49.489Z,4.72
2023-09-29T11:34:18.884Z,3.05
2023-09-29T11:36:46.946Z,6.70
2023-09-29T11:39:18.104Z,5.70
2023-09-29T11:41:46.615Z,6.32
2023-09-29T11:44:15.062Z,5.70
2023-09-29T11:46:43.039Z,6.25
2023-09-29T11:49:11.054Z,5.80
2023-09-29T11:51:40.577Z,7.65
2023-09-29T11:54:08.904Z,4.35
2023-09-29T11:56:37.067Z,5.45
2023-09-29T11:59:05.444Z,3.65
2023-09-29T12:01:33.509Z,4.20
2023-09-29T12:04:01.964Z,5.15
2023-09-29T12:06:30.388Z,4.10
2023-09-29T12:08:59.927Z,4.97
2023-09-29T12:11:27.879Z,5.07
2023-09-29T12:13:56.068Z,6.10
2023-09-29T12:16:24.593Z,5.95
2023-09-29T12:18:52.835Z,6.00
2023-09-29T12:21:23.520Z,6.53
2023-09-29T12:23:51.620Z,6.70
2023-09-29T12:26:21.129Z,4.40
2023-09-29T12:28:49.748Z,5.18
2023-09-29T12:31:18.518Z,5.88
2023-09-29T12:33:47.259Z,7.68
2023-09-29T12:36:15.863Z,7.00
2023-09-29T12:38:45.270Z,5.60
2023-09-29T12:41:14.293Z,7.45
2023-09-29T12:43:44.386Z,10.32
2023-09-29T12:46:12.435Z,6.82
2023-09-29T12:48:40.743Z,8.43
2023-09-29T12:51:08.904Z,8.30
2023-09-29T12:53:37.193Z,7.28
2023-09-29T12:56:05.598Z,6.20
2023-09-29T12:58:33.606Z,6.20
2023-09-29T13:01:03.059Z,7.43
2023-09-29T13:03:31.562Z,7.10
2023-09-29T13:06:01.215Z,6.80
2023-09-29T13:08:29.315Z,6.60
2023-09-29T13:10:57.815Z,6.80
2023-09-29T13:13:26.621Z,5.07
2023-09-29T13:15:54.697Z,7.07
2023-09-29T13:18:24.873Z,4.35
2023-09-29T13:20:53.131Z,3.63
2023-09-29T13:23:22.847Z,3.90
2023-09-29T13:25:52.664Z,4.15
2023-09-29T13:28:20.894Z,4.87
2023-09-29T13:30:54.395Z,3.47
2023-09-29T13:33:28.267Z,3.75
2023-09-29T13:35:56.887Z,3.20
2023-09-29T13:38:25.223Z,3.22
2023-09-29T13:40:54.335Z,4.80
2023-09-29T13:43:22.992Z,3.05
2023-09-29T13:45:51.164Z,4.07
2023-09-29T13:48:23.849Z,2.28
2023-09-29T13:50:53.597Z,3.85
2023-09-29T13:53:22.218Z,3.00
2023-09-29T13:55:52.563Z,2.08
2023-09-29T13:58:20.655Z,4.25
2023-09-29T14:00:51.031Z,6.00
2023-09-29T14:03:19.300Z,1.88
2023-09-29T14:05:47.660Z,3.20
2023-09-29T14:08:17.228Z,13.20
2023-09-29T14:10:45.280Z,12.20
2023-09-29T14:13:13.292Z,2.95
2023-09-29T14:15:41.323Z,4.00
2023-09-29T14:18:09.323Z,2.83
2023-09-29T14:20:38.142Z,2.70
2023-09-29T14:23:08.120Z,2.38
2023-09-29T14:25:37.479Z,3.10
2023-09-29T14:28:06.484Z,2.85
2023-09-29T14:30:34.704Z,2.60
2023-09-29T14:33:05.746Z,3.33
2023-09-29T14:35:45.907Z,6.25
2023-09-29T14:38:17.096Z,3.53
2023-09-29T14:40:46.559Z,3.30
2023-09-29T14:43:15.110Z,3.25
2023-09-29T14:45:43.079Z,2.22
2023-09-29T14:48:11.438Z,5.55
2023-09-29T14:50:40.404Z,4.38
2023-09-29T14:53:08.383Z,2.33
2023-09-29T14:55:39.827Z,4.72
2023-09-29T14:58:09.750Z,4.35
2023-09-29T15:00:42.176Z,10.10
2023-09-29T15:03:10.315Z,5.97
2023-09-29T15:05:41.162Z,4.68
2023-09-29T15:08:09.233Z,8.27
2023-09-29T15:10:37.149Z,5.80
2023-09-29T15:13:05.224Z,10.02
2023-09-29T15:15:34.650Z,7.40
2023-09-29T15:18:05.855Z,9.40
2023-09-29T15:20:33.971Z,6.15
2023-09-29T15:23:01.966Z,7.18
2023-09-29T15:25:29.948Z,8.75
2023-09-29T15:27:57.946Z,7.28
2023-09-29T15:30:25.958Z,5.63
2023-09-29T15:32:55.488Z,7.63
2023-09-29T15:35:23.581Z,6.15
2023-09-29T15:37:51.560Z,5.90
2023-09-29T15:40:19.619Z,14.00
2023-09-29T15:42:47.660Z,7.95
2023-09-29T15:45:15.637Z,7.32
2023-09-29T15:47:43.643Z,10.02
2023-09-29T15:50:13.115Z,6.45
2023-09-29T15:52:42.180Z,6.85
2023-09-29T15:55:11.680Z,10.07
2023-09-29T15:57:39.877Z,7.35
2023-09-29T16:00:09.267Z,6.47
2023-09-29T16:02:37.676Z,8.05
2023-09-29T16:05:06.365Z,5.20
2023-09-29T16:07:35.697Z,8.95
2023-09-29T16:10:03.703Z,7.82
2023-09-29T16:12:31.861Z,4.90
2023-09-29T16:14:59.918Z,11.10
2023-09-29T16:17:28.500Z,6.82
2023-09-29T16:19:57.107Z,9.52
2023-09-29T16:22:25.060Z,9.70
2023-09-29T16:24:54.495Z,10.68
2023-09-29T16:27:24.434Z,8.50
2023-09-29T16:29:53.828Z,8.38
2023-09-29T16:32:31.720Z,8.20
2023-09-29T16:35:01.722Z,10.20
2023-09-29T16:37:29.792Z,7.82
2023-09-29T16:40:00.525Z,6.68
2023-09-29T16:42:31.929Z,6.70
2023-09-29T16:44:59.861Z,10.60
2023-09-29T16:47:27.871Z,7.70
2023-09-29T16:49:56.551Z,7.15
2023-09-29T16:52:24.587Z,6.25
2023-09-29T16:54:52.537Z,6.25
2023-09-29T16:57:22.985Z,8.45
2023-09-29T16:59:51.299Z,6.43
2023-09-29T17:02:19.807Z,4.95
2023-09-29T17:04:47.797Z,6.65
2023-09-29T17:07:15.770Z,6.93
2023-09-29T17:09:43.692Z,6.97
2023-09-29T17:12:12.844Z,7.13
2023-09-29T17:14:42.536Z,7.72
2023-09-29T17:17:11.395Z,7.65
2023-09-29T17:19:39.649Z,7.28
2023-09-29T17:22:07.847Z,9.45
2023-09-29T17:24:36.328Z,7.00
2023-09-29T17:27:04.547Z,6.70
2023-09-29T17:29:32.630Z,12.48
2023-09-29T17:32:02.074Z,9.98
2023-09-29T17:34:30.354Z,9.70
2023-09-29T17:36:58.321Z,11.88
2023-09-29T17:39:26.364Z,13.23
2023-09-29T17:41:54.434Z,7.90
2023-09-29T17:44:22.890Z,9.45
2023-09-29T17:46:50.982Z,9.75
2023-09-29T17:49:20.566Z,11.32
2023-09-29T17:51:48.613Z,7.18
2023-09-29T17:54:16.590Z,11.10
2023-09-29T17:56:44.778Z,13.05
2023-09-29T17:59:13.083Z,11.18
2023-09-29T18:01:41.100Z,9.07
2023-09-29T18:04:09.244Z,11.75
2023-09-29T18:06:38.830Z,11.40
2023-09-29T18:09:07.392Z,10.88
2023-09-29T18:11:35.967Z,19.60
2023-09-29T18:14:04.777Z,11.68
2023-09-29T18:16:32.982Z,10.30
2023-09-29T18:19:01.451Z,12.43
2023-09-29T18:21:29.671Z,11.93
2023-09-29T18:24:00.758Z,8.80
2023-09-29T18:28:56.861Z,11.57
2023-09-29T18:31:25.142Z,11.10
2023-09-29T18:33:53.272Z,12.40
2023-09-29T18:36:21.351Z,12.40
2023-09-29T18:38:51.052Z,10.20
2023-09-29T18:41:21.296Z,12.32
2023-09-29T18:43:49.548Z,13.57
2023-09-29T18:46:18.203Z,10.43
2023-09-29T18:48:47.779Z,9.88
2023-09-29T18:51:15.834Z,16.42
2023-09-29T18:53:43.859Z,11.02
2023-09-29T18:56:11.824Z,12.40
2023-09-29T18:58:41.213Z,10.35
2023-09-29T19:01:09.641Z,10.48
2023-09-29T19:03:37.615Z,11.45
2023-09-29T19:06:06.516Z,11.93
2023-09-29T19:08:34.639Z,10.52
2023-09-29T19:11:02.954Z,12.40
2023-09-29T19:13:30.929Z,10.38
2023-09-29T19:16:00.336Z,13.77
2023-09-29T19:18:28.476Z,17.55
2023-09-29T19:20:56.502Z,16.33
2023-09-29T19:23:24.514Z,10.88
2023-09-29T19:25:52.499Z,10.98
2023-09-29T19:28:20.451Z,12.25
2023-09-29T19:30:48.484Z,11.95
2023-09-29T19:33:17.927Z,10.48
2023-09-29T19:35:46.018Z,9.55
2023-09-29T19:38:14.279Z,11.85
2023-09-29T19:40:42.226Z,10.23
2023-09-29T19:43:10.237Z,11.23
2023-09-29T19:45:38.308Z,8.52
2023-09-29T19:48:07.162Z,14.88
2023-09-29T19:50:36.793Z,11.43
2023-09-29T19:53:04.901Z,13.57
2023-09-29T19:55:33.230Z,11.98
2023-09-29T19:58:01.304Z,11.30
2023-09-29T20:00:29.253Z,10.93
2023-09-29T20:02:57.467Z,10.35
2023-09-29T20:05:25.921Z,11.90
2023-09-29T20:07:55.651Z,14.82
2023-09-29T20:10:24.131Z,10.95
2023-09-29T20:12:52.405Z,9.70
2023-09-29T20:15:21.782Z,11.82
2023-09-29T20:17:50.300Z,10.25
2023-09-29T20:20:19.048Z,23.83
2023-09-29T20:22:47.420Z,9.68
2023-09-29T20:25:16.755Z,11.88
2023-09-29T20:27:44.882Z,13.15
2023-09-29T20:30:13.075Z,13.95
2023-09-29T20:32:41.179Z,11.25
2023-09-29T20:35:09.320Z,10.10
2023-09-29T20:37:37.234Z,11.48
2023-09-29T20:40:05.701Z,12.90
2023-09-29T20:42:35.090Z,12.68
2023-09-29T20:45:03.269Z,12.27
2023-09-29T20:47:31.351Z,12.68
2023-09-29T20:50:00.300Z,11.93
2023-09-29T20:52:28.292Z,14.73
2023-09-29T20:54:56.266Z,9.90
2023-09-29T20:57:25.275Z,12.57
2023-09-29T20:59:54.902Z,9.52
2023-09-29T21:02:22.936Z,11.00
2023-09-29T21:04:50.881Z,9.95
2023-09-29T21:07:19.027Z,9.63
2023-09-29T21:09:46.963Z,13.60
2023-09-29T21:12:14.938Z,9.85
2023-09-29T21:14:42.992Z,17.40
2023-09-29T21:17:12.447Z,14.25
2023-09-29T21:19:40.400Z,13.02
2023-09-29T21:22:08.514Z,11.25
2023-09-29T21:24:36.507Z,15.25
2023-09-29T21:27:04.538Z,11.45
2023-09-29T21:29:32.982Z,13.95
2023-09-29T21:32:00.931Z,11.20
2023-09-29T21:34:30.228Z,17.50
2023-09-29T21:36:58.185Z,10.57
2023-09-29T21:39:26.252Z,13.02
2023-09-29T21:41:54.203Z,12.10
2023-09-29T21:44:22.188Z,16.65
2023-09-29T21:46:50.242Z,12.25
2023-09-29T21:49:19.904Z,13.73
2023-09-29T21:51:51.347Z,17.98
2023-09-29T21:54:19.785Z,18.55
2023-09-29T21:56:47.754Z,10.77
2023-09-29T21:59:15.959Z,12.05
2023-09-29T22:01:44.606Z,11.00
2023-09-29T22:04:15.729Z,14.45
2023-09-29T22:09:15.563Z,11.65
2023-09-29T22:11:44.966Z,15.02
2023-09-29T22:14:13.014Z,15.32
2023-09-29T22:16:41.296Z,11.10
2023-09-29T22:19:09.406Z,10.68
2023-09-29T22:21:37.422Z,20.20
2023-09-29T22:24:06.101Z,10.85
2023-09-29T22:26:36.367Z,16.52
2023-09-29T22:29:04.714Z,16.77
2023-09-29T22:31:32.770Z,17.88
2023-09-29T22:34:01.146Z,8.00
2023-09-29T22:36:29.438Z,15.00
2023-09-29T22:38:58.550Z,16.70
2023-09-29T22:41:27.617Z,17.63
2023-09-29T22:43:57.175Z,12.15
2023-09-29T22:46:25.629Z,14.30
2023-09-29T22:48:53.605Z,16.40
2023-09-29T22:51:21.554Z,16.25
2023-09-29T22:53:49.585Z,13.73
2023-09-29T22:56:18.779Z,14.52
2023-09-29T22:58:49.248Z,12.98
2023-09-29T23:01:18.883Z,14.65
2023-09-29T23:03:47.141Z,18.15
2023-09-29T23:06:15.305Z,15.20
2023-09-29T23:08:43.307Z,15.18
2023-09-29T23:11:12.840Z,13.57
2023-09-29T23:13:42.460Z,15.85
2023-09-29T23:16:11.056Z,15.15
2023-09-29T23:18:42.079Z,14.93
2023-09-29T23:21:10.174Z,14.75
2023-09-29T23:23:38.134Z,13.45
2023-09-29T23:26:06.096Z,13.07
2023-09-29T23:28:34.162Z,18.63
2023-09-29T23:31:02.153Z,20.70
2023-09-29T23:33:30.381Z,18.77
2023-09-29T23:35:59.743Z,18.33
2023-09-29T23:38:27.779Z,20.45
2023-09-29T23:40:55.837Z,19.80
2023-09-29T23:43:24.547Z,18.48
2023-09-29T23:45:52.579Z,12.88
2023-09-29T23:48:20.717Z,15.75
2023-09-29T23:50:48.766Z,18.42
2023-09-29T23:53:18.075Z,10.15
2023-09-29T23:55:46.064Z,14.63
2023-09-29T23:58:14.000Z,15.02
